sensor_id;sensor_type;location;lat;lon;timestamp;pressure;altitude;pressure_sealevel;temperature;humidity
3132;BME280;62090;52.330;9.104;2022-10-31T00:01:39;101423.56;;;15.80;89.43
3132;BME280;62090;52.330;9.104;2022-10-31T00:04:09;101379.38;;;15.50;89.41
3132;BME280;62090;52.330;9.104;2022-10-31T00:06:38;101419.19;;;15.75;89.61
3132;BME280;62090;52.330;9.104;2022-10-31T00:09:09;101445.97;;;15.90;89.48
3132;BME280;62090;52.330;9.104;2022-10-31T00:11:39;101446.78;;;15.88;89.46
3132;BME280;62090;52.330;9.104;2022-10-31T00:14:12;101447.72;;;15.91;89.07
3132;BME280;62090;52.330;9.104;2022-10-31T00:16:42;101437.16;;;15.73;88.95
3132;BME280;62090;52.330;9.104;2022-10-31T00:19:11;101455.19;;;15.78;89.36
3132;BME280;62090;52.330;9.104;2022-10-31T00:21:41;101447.47;;;15.75;89.59
3132;BME280;62090;52.330;9.104;2022-10-31T00:24:11;101443.97;;;15.71;89.66
3132;BME280;62090;52.330;9.104;2022-10-31T00:26:41;101435.22;;;15.60;89.75
3132;BME280;62090;52.330;9.104;2022-10-31T00:29:13;101474.91;;;15.77;89.46
3132;BME280;62090;52.330;9.104;2022-10-31T00:31:43;101466.25;;;15.72;90.18
3132;BME280;62090;52.330;9.104;2022-10-31T00:34:13;101475.66;;;15.70;90.61
3132;BME280;62090;52.330;9.104;2022-10-31T00:36:42;101462.66;;;15.61;91.02
3132;BME280;62090;52.330;9.104;2022-10-31T00:39:12;101478.06;;;15.61;91.98
3132;BME280;62090;52.330;9.104;2022-10-31T00:41:42;101477.13;;;15.56;93.41
3132;BME280;62090;52.330;9.104;2022-10-31T00:44:15;101464.34;;;15.59;93.30
3132;BME280;62090;52.330;9.104;2022-10-31T00:46:45;101434.78;;;15.33;93.44
3132;BME280;62090;52.330;9.104;2022-10-31T00:49:20;101449.59;;;15.49;93.25
3132;BME280;62090;52.330;9.104;2022-10-31T00:51:50;101478.91;;;15.58;93.53
3132;BME280;62090;52.330;9.104;2022-10-31T00:54:20;101450.41;;;15.46;93.20
3132;BME280;62090;52.330;9.104;2022-10-31T00:56:49;101494.44;;;15.68;93.33
3132;BME280;62090;52.330;9.104;2022-10-31T00:59:22;101493.66;;;15.70;93.12
3132;BME280;62090;52.330;9.104;2022-10-31T01:01:51;101436.59;;;15.40;92.69
3132;BME280;62090;52.330;9.104;2022-10-31T01:04:22;101495.25;;;15.65;92.79
3132;BME280;62090;52.330;9.104;2022-10-31T01:06:51;101493.53;;;15.62;92.99
3132;BME280;62090;52.330;9.104;2022-10-31T01:09:23;101467.59;;;15.49;93.05
3132;BME280;62090;52.330;9.104;2022-10-31T01:11:53;101454.56;;;15.40;93.08
3132;BME280;62090;52.330;9.104;2022-10-31T01:14:25;101501.25;;;15.66;92.53
3132;BME280;62090;52.330;9.104;2022-10-31T01:16:56;101495.94;;;15.55;92.43
3132;BME280;62090;52.330;9.104;2022-10-31T01:19:26;101501.13;;;15.56;92.24
3132;BME280;62090;52.330;9.104;2022-10-31T01:21:56;101505.34;;;15.53;92.35
3132;BME280;62090;52.330;9.104;2022-10-31T01:24:28;101496.66;;;15.46;92.41
3132;BME280;62090;52.330;9.104;2022-10-31T01:27:00;101504.38;;;15.49;92.30
3132;BME280;62090;52.330;9.104;2022-10-31T01:29:35;101511.25;;;15.50;92.35
3132;BME280;62090;52.330;9.104;2022-10-31T01:32:05;101507.75;;;15.44;92.21
3132;BME280;62090;52.330;9.104;2022-10-31T01:34:35;101501.56;;;15.33;92.10
3132;BME280;62090;52.330;9.104;2022-10-31T01:37:05;101511.75;;;15.30;92.32
3132;BME280;62090;52.330;9.104;2022-10-31T01:39:35;101511.69;;;15.25;91.84
3132;BME280;62090;52.330;9.104;2022-10-31T01:42:05;101501.25;;;15.16;92.37
3132;BME280;62090;52.330;9.104;2022-10-31T01:44:52;101505.66;;;15.21;91.90
3132;BME280;62090;52.330;9.104;2022-10-31T01:47:36;101505.53;;;15.15;92.40
3132;BME280;62090;52.330;9.104;2022-10-31T01:50:20;101514.19;;;15.20;92.56
3132;BME280;62090;52.330;9.104;2022-10-31T01:52:56;101517.53;;;15.16;93.18
3132;BME280;62090;52.330;9.104;2022-10-31T01:55:29;101495.94;;;15.07;93.17
3132;BME280;62090;52.330;9.104;2022-10-31T01:58:03;101520.16;;;15.19;92.66
3132;BME280;62090;52.330;9.104;2022-10-31T02:00:37;101517.56;;;15.19;93.11
3132;BME280;62090;52.330;9.104;2022-10-31T02:03:08;101521.84;;;15.19;93.26
3132;BME280;62090;52.330;9.104;2022-10-31T02:05:38;101515.84;;;15.18;93.23
3132;BME280;62090;52.330;9.104;2022-10-31T02:08:13;101508.22;;;15.21;92.78
3132;BME280;62090;52.330;9.104;2022-10-31T02:10:49;101510.50;;;15.08;93.40
3132;BME280;62090;52.330;9.104;2022-10-31T02:13:19;101516.56;;;15.10;93.27
3132;BME280;62090;52.330;9.104;2022-10-31T02:15:56;101487.25;;;14.99;93.26
3132;BME280;62090;52.330;9.104;2022-10-31T02:18:29;101476.00;;;14.91;93.02
3132;BME280;62090;52.330;9.104;2022-10-31T02:21:05;101513.13;;;15.09;93.43
3132;BME280;62090;52.330;9.104;2022-10-31T02:24:00;101492.22;;;14.91;92.76
3132;BME280;62090;52.330;9.104;2022-10-31T02:26:49;101500.84;;;14.93;93.46
3132;BME280;62090;52.330;9.104;2022-10-31T02:30:05;101512.13;;;15.01;93.31
3132;BME280;62090;52.330;9.104;2022-10-31T02:32:48;101508.69;;;15.02;93.33
3132;BME280;62090;52.330;9.104;2022-10-31T02:35:26;101490.66;;;14.96;93.38
3132;BME280;62090;52.330;9.104;2022-10-31T02:38:04;101502.69;;;15.00;93.54
3132;BME280;62090;52.330;9.104;2022-10-31T02:40:46;101499.22;;;14.98;93.30
3132;BME280;62090;52.330;9.104;2022-10-31T02:43:42;101499.84;;;14.87;93.39
3132;BME280;62090;52.330;9.104;2022-10-31T02:46:19;101516.13;;;14.87;93.40
3132;BME280;62090;52.330;9.104;2022-10-31T02:48:57;101486.63;;;14.67;92.84
3132;BME280;62090;52.330;9.104;2022-10-31T02:51:30;101516.84;;;14.80;93.13
3132;BME280;62090;52.330;9.104;2022-10-31T02:54:02;101503.16;;;14.79;93.36
3132;BME280;62090;52.330;9.104;2022-10-31T02:56:32;101503.84;;;14.72;93.87
3132;BME280;62090;52.330;9.104;2022-10-31T02:59:03;101518.47;;;14.76;93.77
3132;BME280;62090;52.330;9.104;2022-10-31T03:07:28;101526.91;;;14.69;93.73
3132;BME280;62090;52.330;9.104;2022-10-31T03:10:05;101516.44;;;14.60;93.27
3132;BME280;62090;52.330;9.104;2022-10-31T03:12:40;101501.69;;;14.49;94.00
3132;BME280;62090;52.330;9.104;2022-10-31T03:15:21;101522.56;;;14.67;93.91
3132;BME280;62090;52.330;9.104;2022-10-31T03:17:57;101389.31;;;13.89;93.98
3132;BME280;62090;52.330;9.104;2022-10-31T03:20:36;101529.44;;;14.68;93.50
3132;BME280;62090;52.330;9.104;2022-10-31T03:23:12;101512.13;;;14.58;93.67
3132;BME280;62090;52.330;9.104;2022-10-31T03:25:48;101525.81;;;14.60;93.73
3132;BME280;62090;52.330;9.104;2022-10-31T03:28:23;101520.78;;;14.63;93.98
3132;BME280;62090;52.330;9.104;2022-10-31T03:30:57;101529.22;;;14.57;94.56
3132;BME280;62090;52.330;9.104;2022-10-31T03:33:36;101537.41;;;14.41;95.25
3132;BME280;62090;52.330;9.104;2022-10-31T03:36:12;101538.75;;;14.25;96.20
3132;BME280;62090;52.330;9.104;2022-10-31T03:38:45;101546.50;;;14.28;96.41
3132;BME280;62090;52.330;9.104;2022-10-31T03:41:20;101545.72;;;14.31;96.53
3132;BME280;62090;52.330;9.104;2022-10-31T03:43:56;101547.72;;;14.43;96.63
3132;BME280;62090;52.330;9.104;2022-10-31T03:46:28;101547.75;;;14.46;96.39
3132;BME280;62090;52.330;9.104;2022-10-31T03:48:58;101546.78;;;14.41;96.43
3132;BME280;62090;52.330;9.104;2022-10-31T03:51:36;101557.16;;;14.45;96.52
3132;BME280;62090;52.330;9.104;2022-10-31T03:54:14;101554.50;;;14.41;96.33
3132;BME280;62090;52.330;9.104;2022-10-31T03:56:51;101559.75;;;14.47;96.18
3132;BME280;62090;52.330;9.104;2022-10-31T03:59:25;101563.22;;;14.49;96.05
3132;BME280;62090;52.330;9.104;2022-10-31T04:02:00;101538.19;;;14.38;95.63
3132;BME280;62090;52.330;9.104;2022-10-31T04:04:33;101501.69;;;14.11;95.54
3132;BME280;62090;52.330;9.104;2022-10-31T04:07:08;101558.16;;;14.52;95.53
3132;BME280;62090;52.330;9.104;2022-10-31T04:09:41;101550.38;;;14.47;95.56
3132;BME280;62090;52.330;9.104;2022-10-31T04:12:14;101536.41;;;14.36;95.37
3132;BME280;62090;52.330;9.104;2022-10-31T04:15:10;101543.41;;;14.42;95.55
3132;BME280;62090;52.330;9.104;2022-10-31T04:17:42;101547.75;;;14.46;94.98
3132;BME280;62090;52.330;9.104;2022-10-31T04:20:15;101550.28;;;14.44;94.86
3132;BME280;62090;52.330;9.104;2022-10-31T04:22:50;101555.34;;;14.41;94.43
3132;BME280;62090;52.330;9.104;2022-10-31T04:25:20;101521.47;;;14.18;94.29
3132;BME280;62090;52.330;9.104;2022-10-31T04:27:51;101550.00;;;14.32;94.50
3132;BME280;62090;52.330;9.104;2022-10-31T04:30:22;101544.88;;;14.33;94.80
3132;BME280;62090;52.330;9.104;2022-10-31T04:32:52;101537.91;;;14.26;94.60
3132;BME280;62090;52.330;9.104;2022-10-31T04:35:22;101550.03;;;14.33;95.05
3132;BME280;62090;52.330;9.104;2022-10-31T04:37:56;101546.47;;;14.27;94.50
3132;BME280;62090;52.330;9.104;2022-10-31T04:40:26;101547.34;;;14.27;94.46
3132;BME280;62090;52.330;9.104;2022-10-31T04:43:14;101546.44;;;14.25;94.49
3132;BME280;62090;52.330;9.104;2022-10-31T04:46:04;101530.88;;;14.18;94.59
3132;BME280;62090;52.330;9.104;2022-10-31T04:48:34;101541.13;;;14.18;93.91
3132;BME280;62090;52.330;9.104;2022-10-31T04:51:06;101552.34;;;14.23;93.50
3132;BME280;62090;52.330;9.104;2022-10-31T04:53:38;101549.59;;;14.14;93.43
3132;BME280;62090;52.330;9.104;2022-10-31T04:56:26;101557.16;;;14.09;94.33
3132;BME280;62090;52.330;9.104;2022-10-31T04:59:03;101561.47;;;14.12;94.01
3132;BME280;62090;52.330;9.104;2022-10-31T05:01:44;101558.91;;;14.10;93.97
3132;BME280;62090;52.330;9.104;2022-10-31T05:04:17;101541.59;;;14.00;93.85
3132;BME280;62090;52.330;9.104;2022-10-31T05:06:47;101535.44;;;13.93;93.42
3132;BME280;62090;52.330;9.104;2022-10-31T05:09:19;101545.84;;;14.00;92.92
3132;BME280;62090;52.330;9.104;2022-10-31T05:11:49;101554.41;;;14.02;92.50
3132;BME280;62090;52.330;9.104;2022-10-31T05:14:42;101544.78;;;13.90;91.97
3132;BME280;62090;52.330;9.104;2022-10-31T05:17:33;101547.25;;;13.87;91.65
3132;BME280;62090;52.330;9.104;2022-10-31T05:20:23;101535.88;;;13.76;91.65
3132;BME280;62090;52.330;9.104;2022-10-31T05:23:08;101527.19;;;13.69;93.22
3132;BME280;62090;52.330;9.104;2022-10-31T05:25:41;101527.34;;;13.77;93.38
3132;BME280;62090;52.330;9.104;2022-10-31T05:28:11;101522.91;;;13.70;93.26
3132;BME280;62090;52.330;9.104;2022-10-31T05:30:41;101536.81;;;13.79;93.62
3132;BME280;62090;52.330;9.104;2022-10-31T05:33:14;101528.78;;;13.66;93.63
3132;BME280;62090;52.330;9.104;2022-10-31T05:35:44;101540.13;;;13.75;93.13
3132;BME280;62090;52.330;9.104;2022-10-31T05:38:32;101520.03;;;13.56;93.73
3132;BME280;62090;52.330;9.104;2022-10-31T05:41:15;101534.47;;;13.52;93.78
3132;BME280;62090;52.330;9.104;2022-10-31T05:43:46;101537.63;;;13.42;94.27
3132;BME280;62090;52.330;9.104;2022-10-31T05:46:20;101547.66;;;13.35;95.07
3132;BME280;62090;52.330;9.104;2022-10-31T05:49:09;101537.13;;;13.24;96.64
3132;BME280;62090;52.330;9.104;2022-10-31T05:51:57;101534.50;;;13.21;95.90
3132;BME280;62090;52.330;9.104;2022-10-31T05:54:42;101541.50;;;13.28;95.08
3132;BME280;62090;52.330;9.104;2022-10-31T05:57:14;101532.59;;;13.14;95.09
3132;BME280;62090;52.330;9.104;2022-10-31T05:59:45;101535.97;;;13.13;94.77
3132;BME280;62090;52.330;9.104;2022-10-31T06:02:21;101525.63;;;13.10;96.03
3132;BME280;62090;52.330;9.104;2022-10-31T06:05:30;101537.63;;;13.11;96.08
3132;BME280;62090;52.330;9.104;2022-10-31T06:08:00;101528.97;;;13.07;96.36
3132;BME280;62090;52.330;9.104;2022-10-31T06:10:32;101536.97;;;13.18;95.42
3132;BME280;62090;52.330;9.104;2022-10-31T06:13:04;101546.38;;;13.19;94.82
3132;BME280;62090;52.330;9.104;2022-10-31T06:15:41;101546.00;;;13.07;95.50
3132;BME280;62090;52.330;9.104;2022-10-31T06:18:12;101536.59;;;13.06;94.65
3132;BME280;62090;52.330;9.104;2022-10-31T06:20:47;101550.34;;;13.09;95.71
3132;BME280;62090;52.330;9.104;2022-10-31T06:23:17;101540.03;;;13.06;95.82
3132;BME280;62090;52.330;9.104;2022-10-31T06:25:52;101547.09;;;13.14;95.09
3132;BME280;62090;52.330;9.104;2022-10-31T06:28:25;101536.91;;;13.17;94.29
3132;BME280;62090;52.330;9.104;2022-10-31T06:31:01;101547.31;;;13.23;93.90
3132;BME280;62090;52.330;9.104;2022-10-31T06:33:32;101555.97;;;13.28;93.65
3132;BME280;62090;52.330;9.104;2022-10-31T06:36:04;101564.59;;;13.30;93.36
3132;BME280;62090;52.330;9.104;2022-10-31T06:38:35;101528.19;;;13.10;92.95
3132;BME280;62090;52.330;9.104;2022-10-31T06:41:08;101570.63;;;13.33;92.24
3132;BME280;62090;52.330;9.104;2022-10-31T06:43:45;101580.06;;;13.34;91.86
3132;BME280;62090;52.330;9.104;2022-10-31T06:46:34;101570.34;;;13.23;92.22
3132;BME280;62090;52.330;9.104;2022-10-31T06:49:24;101562.50;;;13.17;92.52
3132;BME280;62090;52.330;9.104;2022-10-31T06:51:58;101573.94;;;13.29;91.94
3132;BME280;62090;52.330;9.104;2022-10-31T06:54:29;101537.63;;;13.11;91.63
3132;BME280;62090;52.330;9.104;2022-10-31T06:56:59;101554.88;;;13.18;90.96
3132;BME280;62090;52.330;9.104;2022-10-31T06:59:33;101560.16;;;13.24;90.62
3132;BME280;62090;52.330;9.104;2022-10-31T07:02:09;101586.81;;;13.31;91.32
3132;BME280;62090;52.330;9.104;2022-10-31T07:04:41;101528.84;;;13.03;91.51
3132;BME280;62090;52.330;9.104;2022-10-31T07:07:17;101561.81;;;13.22;91.96
3132;BME280;62090;52.330;9.104;2022-10-31T07:09:50;101578.16;;;13.27;92.46
3132;BME280;62090;52.330;9.104;2022-10-31T07:12:34;101585.72;;;13.23;93.66
3132;BME280;62090;52.330;9.104;2022-10-31T07:15:08;101590.94;;;13.27;93.51
3132;BME280;62090;52.330;9.104;2022-10-31T07:17:39;101575.44;;;13.21;93.84
3132;BME280;62090;52.330;9.104;2022-10-31T07:20:10;101529.47;;;12.94;93.81
3132;BME280;62090;52.330;9.104;2022-10-31T07:22:45;101589.41;;;13.32;94.16
3132;BME280;62090;52.330;9.104;2022-10-31T07:25:17;101601.75;;;13.48;94.59
3132;BME280;62090;52.330;9.104;2022-10-31T07:28:04;101571.31;;;13.26;94.71
3132;BME280;62090;52.330;9.104;2022-10-31T07:30:37;101575.69;;;13.30;94.24
3132;BME280;62090;52.330;9.104;2022-10-31T07:33:08;101607.63;;;13.43;95.19
3132;BME280;62090;52.330;9.104;2022-10-31T07:36:02;101610.13;;;13.41;95.85
3132;BME280;62090;52.330;9.104;2022-10-31T07:38:34;101610.94;;;13.40;95.41
3132;BME280;62090;52.330;9.104;2022-10-31T07:41:04;101616.19;;;13.45;95.51
3132;BME280;62090;52.330;9.104;2022-10-31T07:43:39;101609.50;;;13.50;95.55
3132;BME280;62090;52.330;9.104;2022-10-31T07:46:21;101600.34;;;13.58;95.21
3132;BME280;62090;52.330;9.104;2022-10-31T07:49:14;101607.31;;;13.64;95.67
3132;BME280;62090;52.330;9.104;2022-10-31T07:52:08;101607.72;;;13.80;94.64
3132;BME280;62090;52.330;9.104;2022-10-31T07:54:57;101569.63;;;13.60;94.70
3132;BME280;62090;52.330;9.104;2022-10-31T07:57:27;101580.25;;;13.75;94.96
3132;BME280;62090;52.330;9.104;2022-10-31T08:00:00;101596.94;;;13.93;95.28
3132;BME280;62090;52.330;9.104;2022-10-31T08:02:43;101580.03;;;14.02;94.77
3132;BME280;62090;52.330;9.104;2022-10-31T08:05:34;101575.88;;;14.05;94.60
3132;BME280;62090;52.330;9.104;2022-10-31T08:08:24;101584.53;;;14.10;95.04
3132;BME280;62090;52.330;9.104;2022-10-31T08:11:00;101584.44;;;14.07;95.75
3132;BME280;62090;52.330;9.104;2022-10-31T08:13:32;101582.25;;;14.22;96.09
3132;BME280;62090;52.330;9.104;2022-10-31T08:16:03;101564.19;;;14.16;96.44
3132;BME280;62090;52.330;9.104;2022-10-31T08:18:44;101578.44;;;14.41;97.10
3132;BME280;62090;52.330;9.104;2022-10-31T08:21:15;101547.25;;;14.24;97.13
3132;BME280;62090;52.330;9.104;2022-10-31T08:23:48;101585.72;;;14.62;97.38
3132;BME280;62090;52.330;9.104;2022-10-31T08:26:21;101585.91;;;14.69;97.45
3132;BME280;62090;52.330;9.104;2022-10-31T08:28:54;101586.22;;;14.86;97.55
3132;BME280;62090;52.330;9.104;2022-10-31T08:31:28;101576.81;;;14.85;97.84
3132;BME280;62090;52.330;9.104;2022-10-31T08:34:23;101570.09;;;14.90;97.86
3132;BME280;62090;52.330;9.104;2022-10-31T08:37:12;101584.00;;;15.03;98.64
3132;BME280;62090;52.330;9.104;2022-10-31T08:39:51;101552.28;;;14.99;98.51
3132;BME280;62090;52.330;9.104;2022-10-31T08:42:21;101561.94;;;15.12;97.92
3132;BME280;62090;52.330;9.104;2022-10-31T08:44:51;101544.09;;;15.18;98.04
3132;BME280;62090;52.330;9.104;2022-10-31T08:47:22;101564.97;;;15.37;98.26
3132;BME280;62090;52.330;9.104;2022-10-31T08:49:56;101551.41;;;15.44;98.04
3132;BME280;62090;52.330;9.104;2022-10-31T08:52:27;101581.78;;;15.66;97.83
3132;BME280;62090;52.330;9.104;2022-10-31T08:55:17;101563.75;;;15.63;98.53
3132;BME280;62090;52.330;9.104;2022-10-31T08:57:54;101552.69;;;15.67;98.36
3132;BME280;62090;52.330;9.104;2022-10-31T09:00:34;101558.81;;;15.74;98.33
3132;BME280;62090;52.330;9.104;2022-10-31T09:03:14;101567.66;;;15.91;98.70
3132;BME280;62090;52.330;9.104;2022-10-31T09:05:53;101564.31;;;15.96;99.13
3132;BME280;62090;52.330;9.104;2022-10-31T09:08:48;101511.88;;;15.85;98.67
3132;BME280;62090;52.330;9.104;2022-10-31T09:11:19;101553.16;;;15.96;98.85
3132;BME280;62090;52.330;9.104;2022-10-31T09:14:16;101554.03;;;15.98;99.13
3132;BME280;62090;52.330;9.104;2022-10-31T09:17:06;101555.84;;;16.03;99.15
3132;BME280;62090;52.330;9.104;2022-10-31T09:20:12;101547.38;;;16.11;99.26
3132;BME280;62090;52.330;9.104;2022-10-31T09:22:42;101550.06;;;16.20;99.19
3132;BME280;62090;52.330;9.104;2022-10-31T09:25:14;101553.63;;;16.29;98.37
3132;BME280;62090;52.330;9.104;2022-10-31T09:27:56;101559.78;;;16.37;98.20
3132;BME280;62090;52.330;9.104;2022-10-31T09:30:31;101542.56;;;16.35;98.02
3132;BME280;62090;52.330;9.104;2022-10-31T09:33:03;101556.50;;;16.49;97.43
3132;BME280;62090;52.330;9.104;2022-10-31T09:35:33;101541.13;;;16.55;97.03
3132;BME280;62090;52.330;9.104;2022-10-31T09:38:06;101529.06;;;16.51;96.72
3132;BME280;62090;52.330;9.104;2022-10-31T09:40:43;101536.84;;;16.54;97.16
3132;BME280;62090;52.330;9.104;2022-10-31T09:43:16;101539.44;;;16.57;97.02
3132;BME280;62090;52.330;9.104;2022-10-31T09:45:56;101520.47;;;17.23;93.06
3132;BME280;62090;52.330;9.104;2022-10-31T09:48:52;101515.81;;;16.85;94.11
3132;BME280;62090;52.330;9.104;2022-10-31T09:51:40;101534.53;;;16.74;95.10
3132;BME280;62090;52.330;9.104;2022-10-31T09:54:29;101529.28;;;16.66;95.81
3132;BME280;62090;52.330;9.104;2022-10-31T09:57:05;101531.88;;;16.65;96.15
3132;BME280;62090;52.330;9.104;2022-10-31T09:59:44;101526.00;;;16.78;95.80
3132;BME280;62090;52.330;9.104;2022-10-31T10:02:20;101528.66;;;16.85;95.68
3132;BME280;62090;52.330;9.104;2022-10-31T10:04:56;101536.59;;;17.04;95.68
3132;BME280;62090;52.330;9.104;2022-10-31T10:07:35;101528.91;;;17.10;95.66
3132;BME280;62090;52.330;9.104;2022-10-31T10:10:38;101529.84;;;17.15;95.42
3132;BME280;62090;52.330;9.104;2022-10-31T10:13:39;101535.91;;;17.21;95.00
3132;BME280;62090;52.330;9.104;2022-10-31T10:16:40;101509.22;;;17.12;94.58
3132;BME280;62090;52.330;9.104;2022-10-31T10:19:25;101539.47;;;17.33;94.85
3132;BME280;62090;52.330;9.104;2022-10-31T10:22:04;101537.78;;;17.36;94.52
3132;BME280;62090;52.330;9.104;2022-10-31T10:26:37;101535.09;;;17.25;94.24
3132;BME280;62090;52.330;9.104;2022-10-31T10:29:22;101534.22;;;17.22;94.62
3132;BME280;62090;52.330;9.104;2022-10-31T10:31:58;101499.75;;;17.11;94.90
3132;BME280;62090;52.330;9.104;2022-10-31T10:34:35;101517.94;;;17.26;94.84
3132;BME280;62090;52.330;9.104;2022-10-31T10:37:16;101543.78;;;17.37;95.17
3132;BME280;62090;52.330;9.104;2022-10-31T10:39:53;101526.69;;;17.43;94.55
3132;BME280;62090;52.330;9.104;2022-10-31T10:42:27;101509.50;;;17.42;94.12
3132;BME280;62090;52.330;9.104;2022-10-31T10:45:45;101526.06;;;17.65;93.63
3132;BME280;62090;52.330;9.104;2022-10-31T10:48:42;101526.94;;;17.70;93.59
3132;BME280;62090;52.330;9.104;2022-10-31T10:51:24;101533.81;;;17.73;93.04
3132;BME280;62090;52.330;9.104;2022-10-31T10:57:32;101520.16;;;17.82;91.70
3132;BME280;62090;52.330;9.104;2022-10-31T11:00:15;101496.03;;;17.77;92.01
3132;BME280;62090;52.330;9.104;2022-10-31T11:02:50;101515.97;;;17.97;91.23
3132;BME280;62090;52.330;9.104;2022-10-31T11:05:24;101515.09;;;17.97;90.98
3132;BME280;62090;52.330;9.104;2022-10-31T11:07:55;101515.94;;;17.96;91.23
3132;BME280;62090;52.330;9.104;2022-10-31T11:10:26;101510.81;;;17.97;91.08
3132;BME280;62090;52.330;9.104;2022-10-31T11:13:06;101509.16;;;18.11;90.82
3132;BME280;62090;52.330;9.104;2022-10-31T11:15:50;101477.31;;;18.06;90.11
3132;BME280;62090;52.330;9.104;2022-10-31T11:18:26;101491.19;;;18.24;89.75
3132;BME280;62090;52.330;9.104;2022-10-31T11:20:58;101493.75;;;18.22;89.76
3132;BME280;62090;52.330;9.104;2022-10-31T11:23:31;101493.78;;;18.28;89.60
3132;BME280;62090;52.330;9.104;2022-10-31T11:26:03;101485.16;;;18.23;90.04
3132;BME280;62090;52.330;9.104;2022-10-31T11:28:34;101483.50;;;18.40;89.22
3132;BME280;62090;52.330;9.104;2022-10-31T11:31:07;101478.38;;;18.45;88.70
3132;BME280;62090;52.330;9.104;2022-10-31T11:33:46;101451.66;;;18.38;87.34
3132;BME280;62090;52.330;9.104;2022-10-31T11:36:21;101487.94;;;18.60;87.40
3132;BME280;62090;52.330;9.104;2022-10-31T11:38:54;101471.56;;;18.59;87.60
3132;BME280;62090;52.330;9.104;2022-10-31T11:41:27;101461.25;;;18.59;87.34
3132;BME280;62090;52.330;9.104;2022-10-31T11:44:00;101453.50;;;18.61;87.84
3132;BME280;62090;52.330;9.104;2022-10-31T11:46:34;101461.25;;;18.68;87.63
3132;BME280;62090;52.330;9.104;2022-10-31T11:49:13;101462.16;;;18.75;87.13
3132;BME280;62090;52.330;9.104;2022-10-31T11:51:48;101467.28;;;18.66;87.79
3132;BME280;62090;52.330;9.104;2022-10-31T11:54:22;101456.97;;;18.69;86.85
3132;BME280;62090;52.330;9.104;2022-10-31T11:56:52;101444.91;;;18.65;86.84
3132;BME280;62090;52.330;9.104;2022-10-31T11:59:25;101447.50;;;18.78;86.42
3132;BME280;62090;52.330;9.104;2022-10-31T12:02:00;101447.53;;;18.84;86.29
3132;BME280;62090;52.330;9.104;2022-10-31T12:04:38;101460.47;;;18.92;86.18
3132;BME280;62090;52.330;9.104;2022-10-31T12:07:09;101432.88;;;18.79;85.75
3132;BME280;62090;52.330;9.104;2022-10-31T12:09:40;101442.38;;;18.86;83.88
3132;BME280;62090;52.330;9.104;2022-10-31T12:15:27;101438.06;;;18.88;83.65
3132;BME280;62090;52.330;9.104;2022-10-31T12:21:15;101424.28;;;18.71;84.35
3132;BME280;62090;52.330;9.104;2022-10-31T12:23:56;101435.47;;;18.89;84.61
3132;BME280;62090;52.330;9.104;2022-10-31T12:26:34;101396.72;;;18.79;84.02
3132;BME280;62090;52.330;9.104;2022-10-31T12:29:19;101425.16;;;19.06;84.11
3132;BME280;62090;52.330;9.104;2022-10-31T12:32:03;101415.69;;;19.02;83.62
3132;BME280;62090;52.330;9.104;2022-10-31T12:35:00;101414.81;;;18.82;84.62
3132;BME280;62090;52.330;9.104;2022-10-31T12:37:47;101398.47;;;18.89;84.86
3132;BME280;62090;52.330;9.104;2022-10-31T12:40:40;101401.88;;;18.88;84.81
3132;BME280;62090;52.330;9.104;2022-10-31T12:43:24;101362.28;;;18.74;84.80
3132;BME280;62090;52.330;9.104;2022-10-31T12:46:00;101341.63;;;18.72;84.83
3132;BME280;62090;52.330;9.104;2022-10-31T12:48:52;101367.47;;;18.95;83.72
3132;BME280;62090;52.330;9.104;2022-10-31T12:51:33;101351.13;;;18.97;85.02
3132;BME280;62090;52.330;9.104;2022-10-31T12:54:27;101370.91;;;19.15;83.52
3132;BME280;62090;52.330;9.104;2022-10-31T12:57:07;101358.00;;;19.14;83.67
3132;BME280;62090;52.330;9.104;2022-10-31T12:59:42;101329.56;;;19.00;83.71
3132;BME280;62090;52.330;9.104;2022-10-31T13:02:19;101370.03;;;19.25;83.13
3132;BME280;62090;52.330;9.104;2022-10-31T13:04:54;101370.88;;;19.30;82.20
3132;BME280;62090;52.330;9.104;2022-10-31T13:07:29;101366.56;;;19.25;82.76
3132;BME280;62090;52.330;9.104;2022-10-31T13:10:06;101358.84;;;19.17;83.09
3132;BME280;62090;52.330;9.104;2022-10-31T13:12:39;101351.13;;;19.08;83.51
3132;BME280;62090;52.330;9.104;2022-10-31T13:15:16;101342.50;;;19.11;83.54
3132;BME280;62090;52.330;9.104;2022-10-31T13:17:54;101327.00;;;19.00;84.33
3132;BME280;62090;52.330;9.104;2022-10-31T13:20:28;101332.19;;;18.91;85.17
3132;BME280;62090;52.330;9.104;2022-10-31T13:23:05;101320.97;;;18.74;85.48
3132;BME280;62090;52.330;9.104;2022-10-31T13:26:08;101334.75;;;18.85;85.96
3132;BME280;62090;52.330;9.104;2022-10-31T13:28:41;101303.75;;;18.83;85.95
3132;BME280;62090;52.330;9.104;2022-10-31T13:31:14;101302.91;;;18.77;85.47
3132;BME280;62090;52.330;9.104;2022-10-31T13:33:48;101286.56;;;18.60;85.93
3132;BME280;62090;52.330;9.104;2022-10-31T13:36:26;101298.59;;;18.64;86.51
3132;BME280;62090;52.330;9.104;2022-10-31T13:39:04;101296.00;;;18.77;86.67
3132;BME280;62090;52.330;9.104;2022-10-31T13:41:44;101284.84;;;18.71;86.40
3132;BME280;62090;52.330;9.104;2022-10-31T13:44:20;101278.78;;;18.67;86.15
3132;BME280;62090;52.330;9.104;2022-10-31T13:46:51;101268.47;;;18.50;86.56
3132;BME280;62090;52.330;9.104;2022-10-31T13:49:26;101269.34;;;18.59;86.53
3132;BME280;62090;52.330;9.104;2022-10-31T13:52:14;101267.56;;;18.51;87.11
3132;BME280;62090;52.330;9.104;2022-10-31T13:54:47;101232.31;;;18.41;87.09
3132;BME280;62090;52.330;9.104;2022-10-31T13:57:31;101259.03;;;18.55;87.14
3132;BME280;62090;52.330;9.104;2022-10-31T14:00:06;101262.47;;;18.61;87.96
3132;BME280;62090;52.330;9.104;2022-10-31T14:02:46;101262.47;;;18.76;87.44
3132;BME280;62090;52.330;9.104;2022-10-31T14:05:22;101255.56;;;18.81;87.30
3132;BME280;62090;52.330;9.104;2022-10-31T14:07:54;101230.59;;;18.52;86.74
3132;BME280;62090;52.330;9.104;2022-10-31T14:10:29;101253.84;;;18.77;86.78